Norwood Memorial Airport Norwood US
ICAO: KOWD
IATA: OWD
Category: Medium
Scheduled Services: No

Elevation: 49 ft
TransAlt. 18000 ft.

Airport Communications:
BOSTON APP:124.1
ATIS:119.95
CLNC DEL:121.8
CTAF:126
BOSTON DEP:124.1
GND:121.8
TWR:126

KOWD Zoom In..

If you have problems with the map follow the link
https://www.worldairports.se/pages/airport.php?
ICAO=KOWD

Runways:

(A) RW 10 length 3995 ft width 75 ft
LOC 108.30 / hdg 104

(B) RW 17 length 4008 ft width 100 ft
LOC 108.30 / hdg 170

(C) RW 28 length 3995 ft width 75 ft
LOC 108.30 / hdg 284

(D) RW 35 length 4008 ft width 100 ft
LOC 108.30 / hdg 350

Location; KOWD
Day. 16 / Time. 02.53 Zulu
* Altimeter: 30.24
* Temperature: 6/° c. 42.8°f.
* Wind from: 070° Speed 08 kn.
Dewpoint: //° c.
Visibility: 3/4 Statute Miles.
Conditions: Light Snow.Conditions: Mist.

KOWD 160253Z AUTO 07008KT 3/4SM -SN BR VV007 02/01 A3024 RMK AO2 SLP240 P0009 6//// T00170006 58049


Wind From 070°
Speed 08 kn.

 
 
jpsmedia.com for Web Design worldairports.se 2018   terms of use